• Join FlightAware (Why Join?)
  • Login
  • US Flag 
09:12AM EDT


 

Airport Tracker/Info


-or-


 

Live Flight TrackerFlight Track Log ✈ UAL4553 ✈ 18-Apr-2013 ✈ KIAH - KLFT

Flight Track Log - Related Links

Times and Time Zones

All times are in EDT time to prevent confusion due to time zone crossing. See the UAL4553 flight status page for this flight to view local times or setup timezone preferences in your user account.

Time Position Orientation Groundspeed Altitude Reporting Facility
EDT Latitude Longitude Course Direction KTS MPH feet Rate Location/Type
10:23PM 29.9778 -95.3344 186° South 164 189 700  Level Houston Center
10:24PM 29.9319 -95.3400 186° South 250 288 2,400 1,860 Climbing Houston Center
10:25PM 29.9044 -95.2686 114° Southeast 274 315 4,400 1,920 Climbing Houston Center
10:25PM 29.9000 -95.2483 104° East 269 310 4,900 2,220 Climbing Houston Center
10:26PM 29.8964 -95.1803 93° East 291 335 6,700 2,160 Climbing Houston Center
10:26PM 29.9006 -95.1572 78° East 288 331 7,100 1,680 Climbing Houston Center
10:27PM 29.9108 -95.0611 83° East 298 343 9,100 1,560 Climbing Houston Center
10:28PM 29.9231 -94.9569 82° East 318 366 10,400 1,140 Climbing Houston Center
10:29PM 29.9367 -94.8375 82° East 359 413 11,500 1,260 Climbing Houston Center
10:30PM 29.9497 -94.7158 83° East 377 434 13,000 1,560 Climbing Houston Center
10:31PM 29.9661 -94.5683 83° East 385 443 14,700 1,260 Climbing Houston Center
10:33PM 29.9781 -94.4414 84° East 397 457 15,700 960 Climbing Houston Center
10:34PM 29.9919 -94.3106 83° East 412 474 16,700 960 Climbing Houston Center
10:35PM 30.0047 -94.1764 84° East 423 487 17,700 960 Climbing Houston Center
10:36PM 30.0194 -94.0394 83° East 429 494 18,700 960 Climbing Houston Center
10:37PM 30.0319 -93.9003 84° East 438 504 19,700 960 Climbing Houston Center
10:38PM 30.0461 -93.7589 83° East 445 512 20,700 960 Climbing Houston Center
10:39PM 30.0600 -93.6164 84° East 451 519 21,700 1,020 Climbing Houston Center
10:40PM 30.0747 -93.4575 84° East 456 525 22,800 600 Climbing Houston Center
10:41PM 30.0886 -93.3106 84° East 464 534 23,000 60 Climbing Houston Center
10:42PM 30.1019 -93.1544 84° East 490 564 23,000  Level Houston Center
10:43PM 30.1200 -92.9644 84° East 503 579 23,000 -660 Level Houston Center
10:44PM 30.1200 -92.8103 90° East 483 556 21,700 -2,640 Descending Houston Center
10:45PM 30.1031 -92.6742 98° East 436 502 17,700 -4,320 Descending Houston Center
10:46PM 30.0856 -92.5431 99° East 419 482 12,900 -3,360 Descending Houston Center
10:47PM 30.0700 -92.4197 98° East 389 448 10,900 -2,040 Descending Houston Center
10:48PM 30.0575 -92.3244 99° East 316 364 8,800 -2,580 Descending Houston Center
10:49PM 30.0450 -92.2331 99° East 303 349 5,700 -2,340 Descending Houston Center
10:50PM 29.9811 -92.1792 144° Southeast 283 326 4,100 -1,620 Descending Houston Center
10:52PM 30.1064 -92.0722 36° Northeast  Level Estimated
10:59PM 30.2050 -91.9877 36° Northeast  Level Estimated
11:00PM 30.2050 -91.9877 210° Southwest  Level Estimated